sensor_id;sensor_type;location;lat;lon;timestamp;pressure;altitude;pressure_sealevel;temperature;humidity
54308;BME280;40208;39.778;2.710;2023-04-06T00:00:19;101764.53;;;11.72;100.00
54308;BME280;40208;39.778;2.710;2023-04-06T00:03:05;101759.94;;;11.76;100.00
54308;BME280;40208;39.778;2.710;2023-04-06T00:05:49;101758.13;;;11.78;100.00
54308;BME280;40208;39.778;2.710;2023-04-06T00:08:34;101768.28;;;11.65;100.00
54308;BME280;40208;39.778;2.710;2023-04-06T00:11:19;101767.88;;;11.77;100.00
54308;BME280;40208;39.778;2.710;2023-04-06T00:14:04;101757.13;;;11.80;100.00
54308;BME280;40208;39.778;2.710;2023-04-06T00:16:48;101760.09;;;11.71;100.00
54308;BME280;40208;39.778;2.710;2023-04-06T00:19:33;101758.19;;;11.50;100.00
54308;BME280;40208;39.778;2.710;2023-04-06T00:22:17;101756.19;;;11.30;100.00
54308;BME280;40208;39.778;2.710;2023-04-06T00:25:02;101748.72;;;11.13;100.00
54308;BME280;40208;39.778;2.710;2023-04-06T00:27:46;101765.06;;;11.00;100.00
54308;BME280;40208;39.778;2.710;2023-04-06T00:30:31;101765.97;;;11.01;100.00
54308;BME280;40208;39.778;2.710;2023-04-06T00:33:16;101759.72;;;11.02;100.00
54308;BME280;40208;39.778;2.710;2023-04-06T00:36:00;101760.66;;;11.01;100.00
54308;BME280;40208;39.778;2.710;2023-04-06T00:38:45;101750.59;;;11.11;100.00
54308;BME280;40208;39.778;2.710;2023-04-06T00:41:29;101753.19;;;11.12;100.00
54308;BME280;40208;39.778;2.710;2023-04-06T00:44:14;101753.75;;;11.22;100.00
54308;BME280;40208;39.778;2.710;2023-04-06T00:46:59;101758.88;;;11.28;100.00
54308;BME280;40208;39.778;2.710;2023-04-06T00:49:44;101751.22;;;11.19;100.00
54308;BME280;40208;39.778;2.710;2023-04-06T00:52:28;101764.75;;;11.11;100.00
54308;BME280;40208;39.778;2.710;2023-04-06T00:55:13;101762.06;;;10.83;100.00
54308;BME280;40208;39.778;2.710;2023-04-06T00:57:58;101760.66;;;11.01;100.00
54308;BME280;40208;39.778;2.710;2023-04-06T01:00:43;101759.59;;;11.05;100.00
54308;BME280;40208;39.778;2.710;2023-04-06T01:03:28;101759.69;;;11.03;100.00
54308;BME280;40208;39.778;2.710;2023-04-06T01:06:12;101761.13;;;11.14;100.00
54308;BME280;40208;39.778;2.710;2023-04-06T01:08:57;101748.72;;;11.13;100.00
54308;BME280;40208;39.778;2.710;2023-04-06T01:11:42;101746.19;;;11.10;100.00
54308;BME280;40208;39.778;2.710;2023-04-06T01:14:26;101747.84;;;11.14;100.00
54308;BME280;40208;39.778;2.710;2023-04-06T01:17:11;101749.06;;;11.03;100.00
54308;BME280;40208;39.778;2.710;2023-04-06T01:19:56;101753.28;;;10.81;100.00
54308;BME280;40208;39.778;2.710;2023-04-06T01:22:40;101739.44;;;10.70;100.00
54308;BME280;40208;39.778;2.710;2023-04-06T01:25:25;101743.78;;;10.72;100.00
54308;BME280;40208;39.778;2.710;2023-04-06T01:28:09;101744.47;;;10.79;100.00
54308;BME280;40208;39.778;2.710;2023-04-06T01:30:54;101739.75;;;10.89;100.00
54308;BME280;40208;39.778;2.710;2023-04-06T01:33:38;101728.94;;;10.95;100.00
54308;BME280;40208;39.778;2.710;2023-04-06T01:36:23;101734.53;;;10.86;100.00
54308;BME280;40208;39.778;2.710;2023-04-06T01:39:08;101732.91;;;10.81;100.00
54308;BME280;40208;39.778;2.710;2023-04-06T01:41:52;101730.91;;;10.88;100.00
54308;BME280;40208;39.778;2.710;2023-04-06T01:44:37;101726.59;;;10.86;100.00
54308;BME280;40208;39.778;2.710;2023-04-06T01:47:21;101730.09;;;10.86;100.00
54308;BME280;40208;39.778;2.710;2023-04-06T01:50:06;101730.03;;;10.89;100.00
54308;BME280;40208;39.778;2.710;2023-04-06T01:52:51;101738.28;;;10.80;100.00
54308;BME280;40208;39.778;2.710;2023-04-06T01:55:35;101735.78;;;10.74;100.00
54308;BME280;40208;39.778;2.710;2023-04-06T01:58:20;101732.78;;;10.56;100.00
54308;BME280;40208;39.778;2.710;2023-04-06T02:01:05;101737.16;;;10.26;100.00
54308;BME280;40208;39.778;2.710;2023-04-06T02:03:49;101740.09;;;10.15;100.00
54308;BME280;40208;39.778;2.710;2023-04-06T02:06:34;101737.16;;;10.26;100.00
54308;BME280;40208;39.778;2.710;2023-04-06T02:09:19;101745.66;;;10.39;100.00
54308;BME280;40208;39.778;2.710;2023-04-06T02:12:03;101744.41;;;10.52;100.00
54308;BME280;40208;39.778;2.710;2023-04-06T02:14:48;101739.06;;;10.54;100.00
54308;BME280;40208;39.778;2.710;2023-04-06T02:17:33;101741.47;;;10.61;100.00
54308;BME280;40208;39.778;2.710;2023-04-06T02:20:17;101742.19;;;10.67;100.00
54308;BME280;40208;39.778;2.710;2023-04-06T02:23:02;101751.44;;;10.53;100.00
54308;BME280;40208;39.778;2.710;2023-04-06T02:25:46;101748.50;;;10.63;100.00
54308;BME280;40208;39.778;2.710;2023-04-06T02:28:31;101754.91;;;10.55;100.00
54308;BME280;40208;39.778;2.710;2023-04-06T02:31:15;101746.97;;;10.55;100.00
54308;BME280;40208;39.778;2.710;2023-04-06T02:34:00;101752.13;;;10.30;100.00
54308;BME280;40208;39.778;2.710;2023-04-06T02:36:45;101750.41;;;10.28;100.00
54308;BME280;40208;39.778;2.710;2023-04-06T02:39:29;101754.81;;;10.29;100.00
54308;BME280;40208;39.778;2.710;2023-04-06T02:42:14;101758.31;;;10.29;100.00
54308;BME280;40208;39.778;2.710;2023-04-06T02:44:59;101751.25;;;10.30;100.00
54308;BME280;40208;39.778;2.710;2023-04-06T02:47:44;101753.81;;;10.33;100.00
54308;BME280;40208;39.778;2.710;2023-04-06T02:50:29;101751.94;;;10.36;100.00
54308;BME280;40208;39.778;2.710;2023-04-06T02:53:14;101750.22;;;10.35;100.00
54308;BME280;40208;39.778;2.710;2023-04-06T02:55:58;101755.25;;;10.45;100.00
54308;BME280;40208;39.778;2.710;2023-04-06T02:58:43;101748.88;;;10.50;100.00
54308;BME280;40208;39.778;2.710;2023-04-06T03:01:27;101751.44;;;10.53;100.00
54308;BME280;40208;39.778;2.710;2023-04-06T03:04:12;101751.41;;;10.55;100.00
54308;BME280;40208;39.778;2.710;2023-04-06T03:06:56;101747.91;;;10.53;100.00
54308;BME280;40208;39.778;2.710;2023-04-06T03:09:41;101747.78;;;10.57;100.00
54308;BME280;40208;39.778;2.710;2023-04-06T03:12:26;101738.97;;;10.57;100.00
54308;BME280;40208;39.778;2.710;2023-04-06T03:15:10;101738.47;;;10.44;100.00
54308;BME280;40208;39.778;2.710;2023-04-06T03:17:55;101736.13;;;10.32;100.00
54308;BME280;40208;39.778;2.710;2023-04-06T03:20:40;101733.72;;;10.23;100.00
54308;BME280;40208;39.778;2.710;2023-04-06T03:23:25;101737.06;;;10.31;100.00
54308;BME280;40208;39.778;2.710;2023-04-06T03:26:09;101746.75;;;10.32;100.00
54308;BME280;40208;39.778;2.710;2023-04-06T03:28:54;101736.91;;;10.37;100.00
54308;BME280;40208;39.778;2.710;2023-04-06T03:31:39;101742.41;;;10.29;100.00
54308;BME280;40208;39.778;2.710;2023-04-06T03:34:24;101737.91;;;10.33;100.00
54308;BME280;40208;39.778;2.710;2023-04-06T03:37:08;101738.84;;;10.30;100.00
54308;BME280;40208;39.778;2.710;2023-04-06T03:39:53;101737.59;;;10.11;100.00
54308;BME280;40208;39.778;2.710;2023-04-06T03:42:37;101737.53;;;9.81;100.00
54308;BME280;40208;39.778;2.710;2023-04-06T03:45:22;101722.66;;;9.75;100.00
54308;BME280;40208;39.778;2.710;2023-04-06T03:48:06;101730.63;;;9.74;100.00
54308;BME280;40208;39.778;2.710;2023-04-06T03:50:51;101735.22;;;9.67;100.00
54308;BME280;40208;39.778;2.710;2023-04-06T03:53:36;101736.91;;;9.71;100.00
54308;BME280;40208;39.778;2.710;2023-04-06T03:56:21;101741.84;;;9.85;100.00
54308;BME280;40208;39.778;2.710;2023-04-06T03:59:05;101745.25;;;9.89;100.00
54308;BME280;40208;39.778;2.710;2023-04-06T04:01:50;101740.13;;;9.83;100.00
54308;BME280;40208;39.778;2.710;2023-04-06T04:04:35;101741.63;;;9.93;100.00
54308;BME280;40208;39.778;2.710;2023-04-06T04:07:20;101738.81;;;9.99;100.00
54308;BME280;40208;39.778;2.710;2023-04-06T04:10:05;101743.19;;;10.00;100.00
54308;BME280;40208;39.778;2.710;2023-04-06T04:12:50;101741.00;;;9.83;100.00
54308;BME280;40208;39.778;2.710;2023-04-06T04:15:34;101738.22;;;9.53;100.00
54308;BME280;40208;39.778;2.710;2023-04-06T04:18:19;101752.06;;;9.30;100.00
54308;BME280;40208;39.778;2.710;2023-04-06T04:21:04;101746.06;;;9.22;100.00
54308;BME280;40208;39.778;2.710;2023-04-06T04:23:48;101751.13;;;9.33;100.00
54308;BME280;40208;39.778;2.710;2023-04-06T04:26:33;101753.94;;;9.25;100.00
54308;BME280;40208;39.778;2.710;2023-04-06T04:29:17;101755.56;;;9.32;100.00
54308;BME280;40208;39.778;2.710;2023-04-06T04:32:05;101757.72;;;9.51;100.00
54308;BME280;40208;39.778;2.710;2023-04-06T04:34:49;101748.78;;;9.57;100.00
54308;BME280;40208;39.778;2.710;2023-04-06T04:37:34;101752.16;;;9.62;100.00
54308;BME280;40208;39.778;2.710;2023-04-06T04:40:19;101748.28;;;9.75;100.00
54308;BME280;40208;39.778;2.710;2023-04-06T04:43:03;101741.13;;;9.79;100.00
54308;BME280;40208;39.778;2.710;2023-04-06T04:45:48;101740.06;;;9.86;100.00
54308;BME280;40208;39.778;2.710;2023-04-06T04:48:33;101741.72;;;9.90;100.00
54308;BME280;40208;39.778;2.710;2023-04-06T04:51:18;101746.91;;;9.60;100.00
54308;BME280;40208;39.778;2.710;2023-04-06T04:54:03;101739.00;;;9.59;100.00
54308;BME280;40208;39.778;2.710;2023-04-06T04:56:48;101745.06;;;9.64;100.00
54308;BME280;40208;39.778;2.710;2023-04-06T04:59:33;101739.66;;;9.67;100.00
54308;BME280;40208;39.778;2.710;2023-04-06T05:02:18;101744.66;;;9.45;100.00
54308;BME280;40208;39.778;2.710;2023-04-06T05:05:03;101754.00;;;9.22;100.00
54308;BME280;40208;39.778;2.710;2023-04-06T05:07:47;101751.91;;;8.99;100.00
54308;BME280;40208;39.778;2.710;2023-04-06T05:10:32;101755.09;;;8.76;100.00
54308;BME280;40208;39.778;2.710;2023-04-06T05:13:16;101766.66;;;8.70;100.00
54308;BME280;40208;39.778;2.710;2023-04-06T05:16:01;101769.66;;;8.54;100.00
54308;BME280;40208;39.778;2.710;2023-04-06T05:18:45;101762.88;;;8.39;100.00
54308;BME280;40208;39.778;2.710;2023-04-06T05:21:31;101768.97;;;8.45;100.00
54308;BME280;40208;39.778;2.710;2023-04-06T05:24:16;101780.38;;;8.47;100.00
54308;BME280;40208;39.778;2.710;2023-04-06T05:27:00;101782.03;;;8.53;100.00
54308;BME280;40208;39.778;2.710;2023-04-06T05:29:45;101772.94;;;8.66;100.00
54308;BME280;40208;39.778;2.710;2023-04-06T05:32:30;101774.38;;;8.81;100.00
54308;BME280;40208;39.778;2.710;2023-04-06T05:35:14;101778.34;;;9.01;100.00
54308;BME280;40208;39.778;2.710;2023-04-06T05:37:59;101778.97;;;9.12;100.00
54308;BME280;40208;39.778;2.710;2023-04-06T05:40:45;101776.16;;;9.20;100.00
54308;BME280;40208;39.778;2.710;2023-04-06T05:43:30;101778.72;;;9.23;100.00
54308;BME280;40208;39.778;2.710;2023-04-06T05:46:15;101780.91;;;9.04;100.00
54308;BME280;40208;39.778;2.710;2023-04-06T05:48:59;101788.19;;;8.96;100.00
54308;BME280;40208;39.778;2.710;2023-04-06T05:51:44;101795.28;;;8.94;100.00
54308;BME280;40208;39.778;2.710;2023-04-06T05:54:29;101793.59;;;8.89;100.00
54308;BME280;40208;39.778;2.710;2023-04-06T05:57:14;101791.19;;;8.79;100.00
54308;BME280;40208;39.778;2.710;2023-04-06T06:00:00;101796.00;;;8.60;100.00
54308;BME280;40208;39.778;2.710;2023-04-06T06:02:45;101796.06;;;8.57;100.00
54308;BME280;40208;39.778;2.710;2023-04-06T06:05:30;101808.59;;;8.47;100.00
54308;BME280;40208;39.778;2.710;2023-04-06T06:08:14;101803.44;;;8.42;100.00
54308;BME280;40208;39.778;2.710;2023-04-06T06:10:59;101814.91;;;8.40;100.00
54308;BME280;40208;39.778;2.710;2023-04-06T06:13:43;101807.16;;;8.29;100.00
54308;BME280;40208;39.778;2.710;2023-04-06T06:16:28;101811.44;;;8.35;100.00
54308;BME280;40208;39.778;2.710;2023-04-06T06:19:12;101803.66;;;8.28;100.00
54308;BME280;40208;39.778;2.710;2023-04-06T06:21:57;101806.06;;;8.42;100.00
54308;BME280;40208;39.778;2.710;2023-04-06T06:24:42;101814.59;;;8.57;100.00
54308;BME280;40208;39.778;2.710;2023-04-06T06:27:27;101808.41;;;8.56;100.00
54308;BME280;40208;39.778;2.710;2023-04-06T06:30:12;101812.63;;;8.66;100.00
54308;BME280;40208;39.778;2.710;2023-04-06T06:32:57;101812.50;;;8.73;100.00
54308;BME280;40208;39.778;2.710;2023-04-06T06:35:41;101814.38;;;8.66;100.00
54308;BME280;40208;39.778;2.710;2023-04-06T06:38:25;101813.69;;;8.58;100.00
54308;BME280;40208;39.778;2.710;2023-04-06T06:41:10;101808.22;;;8.67;100.00
54308;BME280;40208;39.778;2.710;2023-04-06T06:43:55;101816.22;;;8.64;100.00
54308;BME280;40208;39.778;2.710;2023-04-06T06:46:40;101818.91;;;8.61;100.00
54308;BME280;40208;39.778;2.710;2023-04-06T06:49:24;101821.25;;;8.76;100.00
54308;BME280;40208;39.778;2.710;2023-04-06T06:52:09;101831.66;;;8.84;100.00
54308;BME280;40208;39.778;2.710;2023-04-06T06:54:53;101823.66;;;8.87;100.00
54308;BME280;40208;39.778;2.710;2023-04-06T06:57:38;101821.56;;;9.03;100.00
54308;BME280;40208;39.778;2.710;2023-04-06T07:00:23;101822.03;;;9.20;100.00
54308;BME280;40208;39.778;2.710;2023-04-06T07:03:07;101813.88;;;9.31;100.00
54308;BME280;40208;39.778;2.710;2023-04-06T07:05:52;101804.84;;;9.38;100.00
54308;BME280;40208;39.778;2.710;2023-04-06T07:08:39;101807.34;;;9.44;100.00
54308;BME280;40208;39.778;2.710;2023-04-06T07:11:24;101808.88;;;9.54;100.00
54308;BME280;40208;39.778;2.710;2023-04-06T07:14:08;101809.56;;;9.63;100.00
54308;BME280;40208;39.778;2.710;2023-04-06T07:16:53;101816.50;;;9.68;100.00
54308;BME280;40208;39.778;2.710;2023-04-06T07:19:38;101815.47;;;9.74;100.00
54308;BME280;40208;39.778;2.710;2023-04-06T07:22:23;101823.09;;;9.86;100.00
54308;BME280;40208;39.778;2.710;2023-04-06T07:25:07;101831.69;;;9.96;100.00
54308;BME280;40208;39.778;2.710;2023-04-06T07:27:52;101830.50;;;10.08;100.00
54308;BME280;40208;39.778;2.710;2023-04-06T07:30:37;101826.66;;;10.19;100.00
54308;BME280;40208;39.778;2.710;2023-04-06T07:33:22;101834.31;;;10.32;100.00
54308;BME280;40208;39.778;2.710;2023-04-06T07:36:06;101833.91;;;10.47;100.00
54308;BME280;40208;39.778;2.710;2023-04-06T07:38:51;101834.16;;;10.69;100.00
54308;BME280;40208;39.778;2.710;2023-04-06T07:41:36;101830.28;;;10.81;100.00
54308;BME280;40208;39.778;2.710;2023-04-06T07:44:21;101838.91;;;10.89;100.00
54308;BME280;40208;39.778;2.710;2023-04-06T07:47:05;101835.09;;;10.98;100.00
54308;BME280;40208;39.778;2.710;2023-04-06T07:49:50;101845.31;;;11.12;100.00
54308;BME280;40208;39.778;2.710;2023-04-06T07:52:35;101839.72;;;11.21;100.00
54308;BME280;40208;39.778;2.710;2023-04-06T07:55:19;101838.59;;;11.28;100.00
54308;BME280;40208;39.778;2.710;2023-04-06T07:58:04;101846.06;;;11.45;100.00
54308;BME280;40208;39.778;2.710;2023-04-06T08:00:49;101850.28;;;11.51;100.00
54308;BME280;40208;39.778;2.710;2023-04-06T08:03:34;101841.97;;;11.61;100.00
54308;BME280;40208;39.778;2.710;2023-04-06T08:06:19;101847.03;;;11.69;100.00
54308;BME280;40208;39.778;2.710;2023-04-06T08:09:03;101850.34;;;11.77;100.00
54308;BME280;40208;39.778;2.710;2023-04-06T08:11:47;101853.38;;;11.93;100.00
54308;BME280;40208;39.778;2.710;2023-04-06T08:14:33;101855.00;;;11.97;100.00
54308;BME280;40208;39.778;2.710;2023-04-06T08:17:17;101851.34;;;12.01;100.00
54308;BME280;40208;39.778;2.710;2023-04-06T08:20:02;101853.72;;;12.09;100.00
54308;BME280;40208;39.778;2.710;2023-04-06T08:22:47;101853.22;;;12.24;100.00
54308;BME280;40208;39.778;2.710;2023-04-06T08:25:33;101855.53;;;12.34;100.00
54308;BME280;40208;39.778;2.710;2023-04-06T08:28:18;101856.72;;;12.50;100.00
54308;BME280;40208;39.778;2.710;2023-04-06T08:31:04;101860.81;;;12.60;100.00
54308;BME280;40208;39.778;2.710;2023-04-06T08:33:49;101857.09;;;12.64;100.00
54308;BME280;40208;39.778;2.710;2023-04-06T08:36:33;101859.31;;;12.77;100.00
54308;BME280;40208;39.778;2.710;2023-04-06T08:39:18;101865.22;;;12.85;100.00
54308;BME280;40208;39.778;2.710;2023-04-06T08:42:19;101868.25;;;12.99;100.00
54308;BME280;40208;39.778;2.710;2023-04-06T08:45:04;101876.78;;;13.07;100.00
54308;BME280;40208;39.778;2.710;2023-04-06T08:47:49;101879.28;;;13.12;100.00
54308;BME280;40208;39.778;2.710;2023-04-06T08:50:35;101883.28;;;13.24;100.00
54308;BME280;40208;39.778;2.710;2023-04-06T08:53:19;101883.66;;;13.38;100.00
54308;BME280;40208;39.778;2.710;2023-04-06T08:56:04;101879.63;;;13.50;100.00
54308;BME280;40208;39.778;2.710;2023-04-06T08:58:49;101887.06;;;13.64;100.00
54308;BME280;40208;39.778;2.710;2023-04-06T09:01:36;101883.38;;;13.68;100.00
54308;BME280;40208;39.778;2.710;2023-04-06T09:04:22;101885.72;;;13.75;100.00
54308;BME280;40208;39.778;2.710;2023-04-06T09:07:07;101873.81;;;13.84;100.00
54308;BME280;40208;39.778;2.710;2023-04-06T09:09:51;101874.28;;;13.94;100.00
54308;BME280;40208;39.778;2.710;2023-04-06T09:12:36;101877.75;;;13.96;100.00
54308;BME280;40208;39.778;2.710;2023-04-06T09:15:21;101876.63;;;14.02;100.00
54308;BME280;40208;39.778;2.710;2023-04-06T09:18:06;101877.00;;;14.14;100.00
54308;BME280;40208;39.778;2.710;2023-04-06T09:21:00;101870.47;;;14.21;100.00
54308;BME280;40208;39.778;2.710;2023-04-06T09:23:45;101866.69;;;14.26;100.00
54308;BME280;40208;39.778;2.710;2023-04-06T09:26:30;101871.31;;;14.42;100.00
54308;BME280;40208;39.778;2.710;2023-04-06T09:29:24;101862.09;;;14.50;100.00
54308;BME280;40208;39.778;2.710;2023-04-06T09:32:11;101864.69;;;14.51;100.00
54308;BME280;40208;39.778;2.710;2023-04-06T09:35:05;101869.66;;;14.60;100.00
54308;BME280;40208;39.778;2.710;2023-04-06T09:37:51;101867.25;;;14.75;100.00
54308;BME280;40208;39.778;2.710;2023-04-06T09:40:51;101874.06;;;14.82;100.00
54308;BME280;40208;39.778;2.710;2023-04-06T09:43:36;101870.97;;;14.91;100.00
54308;BME280;40208;39.778;2.710;2023-04-06T09:46:21;101861.94;;;14.94;100.00
54308;BME280;40208;39.778;2.710;2023-04-06T09:49:07;101864.44;;;14.97;100.00
54308;BME280;40208;39.778;2.710;2023-04-06T09:51:56;101865.25;;;14.99;100.00
54308;BME280;40208;39.778;2.710;2023-04-06T09:54:41;101865.78;;;15.07;100.00
54308;BME280;40208;39.778;2.710;2023-04-06T09:57:37;101866.44;;;15.12;100.00
54308;BME280;40208;39.778;2.710;2023-04-06T10:00:26;101858.78;;;15.23;100.00
54308;BME280;40208;39.778;2.710;2023-04-06T10:06:28;101857.38;;;15.34;100.00
54308;BME280;40208;39.778;2.710;2023-04-06T10:09:18;101856.00;;;15.44;100.00
54308;BME280;40208;39.778;2.710;2023-04-06T10:12:03;101860.03;;;15.53;100.00
54308;BME280;40208;39.778;2.710;2023-04-06T10:14:48;101861.91;;;15.51;100.00
54308;BME280;40208;39.778;2.710;2023-04-06T10:17:33;101859.72;;;15.59;100.00
54308;BME280;40208;39.778;2.710;2023-04-06T10:20:19;101859.66;;;15.60;100.00
54308;BME280;40208;39.778;2.710;2023-04-06T10:23:19;101867.22;;;15.69;100.00
54308;BME280;40208;39.778;2.710;2023-04-06T10:26:11;101868.53;;;15.80;100.00
54308;BME280;40208;39.778;2.710;2023-04-06T10:29:01;101866.66;;;15.82;100.00
54308;BME280;40208;39.778;2.710;2023-04-06T10:31:48;101865.41;;;15.89;100.00
54308;BME280;40208;39.778;2.710;2023-04-06T10:34:35;101864.31;;;15.93;100.00
54308;BME280;40208;39.778;2.710;2023-04-06T10:37:20;101864.38;;;15.92;100.00
54308;BME280;40208;39.778;2.710;2023-04-06T10:40:05;101865.91;;;15.97;100.00
54308;BME280;40208;39.778;2.710;2023-04-06T10:42:51;101869.22;;;16.02;100.00
54308;BME280;40208;39.778;2.710;2023-04-06T10:45:35;101867.94;;;16.09;100.00
54308;BME280;40208;39.778;2.710;2023-04-06T10:48:20;101861.34;;;16.17;100.00
54308;BME280;40208;39.778;2.710;2023-04-06T10:51:09;101866.53;;;16.20;100.00
54308;BME280;40208;39.778;2.710;2023-04-06T10:53:54;101861.16;;;16.20;100.00
54308;BME280;40208;39.778;2.710;2023-04-06T10:56:39;101860.06;;;16.24;100.00
54308;BME280;40208;39.778;2.710;2023-04-06T10:59:23;101868.09;;;16.24;100.00
54308;BME280;40208;39.778;2.710;2023-04-06T11:02:10;101865.38;;;16.25;100.00
54308;BME280;40208;39.778;2.710;2023-04-06T11:05:03;101866.91;;;16.29;100.00
54308;BME280;40208;39.778;2.710;2023-04-06T11:07:47;101873.94;;;16.32;100.00
54308;BME280;40208;39.778;2.710;2023-04-06T11:10:32;101863.81;;;16.37;100.00
54308;BME280;40208;39.778;2.710;2023-04-06T11:13:16;101863.81;;;16.37;100.00
54308;BME280;40208;39.778;2.710;2023-04-06T11:16:01;101863.44;;;16.45;100.00
54308;BME280;40208;39.778;2.710;2023-04-06T11:21:42;101865.41;;;16.41;100.00
54308;BME280;40208;39.778;2.710;2023-04-06T11:24:33;101855.00;;;16.52;100.00
54308;BME280;40208;39.778;2.710;2023-04-06T11:27:18;101858.22;;;16.59;100.00
54308;BME280;40208;39.778;2.710;2023-04-06T11:30:03;101861.69;;;16.61;100.00
54308;BME280;40208;39.778;2.710;2023-04-06T11:32:48;101863.97;;;16.69;100.00
54308;BME280;40208;39.778;2.710;2023-04-06T11:35:33;101862.22;;;16.68;100.00
54308;BME280;40208;39.778;2.710;2023-04-06T11:38:18;101865.53;;;16.73;100.00
54308;BME280;40208;39.778;2.710;2023-04-06T11:41:04;101870.59;;;16.79;100.00
54308;BME280;40208;39.778;2.710;2023-04-06T11:43:49;101864.03;;;16.85;100.00
54308;BME280;40208;39.778;2.710;2023-04-06T11:46:34;101876.25;;;16.90;100.00
54308;BME280;40208;39.778;2.710;2023-04-06T11:49:19;101877.28;;;16.88;100.00
54308;BME280;40208;39.778;2.710;2023-04-06T11:52:13;101870.09;;;16.88;100.00
54308;BME280;40208;39.778;2.710;2023-04-06T11:54:58;101871.66;;;16.92;100.00
54308;BME280;40208;39.778;2.710;2023-04-06T11:57:43;101863.38;;;16.97;100.00
54308;BME280;40208;39.778;2.710;2023-04-06T12:00:28;101861.47;;;16.99;100.00
54308;BME280;40208;39.778;2.710;2023-04-06T12:03:18;101861.97;;;17.06;100.00
54308;BME280;40208;39.778;2.710;2023-04-06T12:06:02;101853.19;;;17.04;100.00
54308;BME280;40208;39.778;2.710;2023-04-06T12:08:47;101859.94;;;17.11;100.00
54308;BME280;40208;39.778;2.710;2023-04-06T12:11:32;101848.25;;;17.12;100.00
54308;BME280;40208;39.778;2.710;2023-04-06T12:14:17;101851.72;;;17.14;100.00
54308;BME280;40208;39.778;2.710;2023-04-06T12:17:01;101850.75;;;17.15;100.00
54308;BME280;40208;39.778;2.710;2023-04-06T12:19:46;101842.78;;;17.13;100.00
54308;BME280;40208;39.778;2.710;2023-04-06T12:22:31;101844.78;;;17.10;100.00
54308;BME280;40208;39.778;2.710;2023-04-06T12:25:15;101845.72;;;17.09;100.00
54308;BME280;40208;39.778;2.710;2023-04-06T12:28:00;101842.16;;;17.08;100.00
54308;BME280;40208;39.778;2.710;2023-04-06T12:30:44;101839.47;;;17.08;100.00
54308;BME280;40208;39.778;2.710;2023-04-06T12:33:29;101838.53;;;17.09;100.00
54308;BME280;40208;39.778;2.710;2023-04-06T12:36:14;101831.34;;;17.10;100.00
54308;BME280;40208;39.778;2.710;2023-04-06T12:38:59;101828.50;;;17.13;100.00
54308;BME280;40208;39.778;2.710;2023-04-06T12:41:47;101834.13;;;17.08;100.00
54308;BME280;40208;39.778;2.710;2023-04-06T12:44:31;101824.69;;;17.17;100.00
54308;BME280;40208;39.778;2.710;2023-04-06T12:47:16;101815.47;;;17.23;100.00
54308;BME280;40208;39.778;2.710;2023-04-06T12:50:01;101822.63;;;17.22;100.00
54308;BME280;40208;39.778;2.710;2023-04-06T12:52:45;101814.56;;;17.22;100.00
54308;BME280;40208;39.778;2.710;2023-04-06T12:55:31;101812.84;;;17.21;100.00
54308;BME280;40208;39.778;2.710;2023-04-06T12:58:18;101811.88;;;17.22;100.00
54308;BME280;40208;39.778;2.710;2023-04-06T13:01:05;101806.50;;;17.22;100.00
54308;BME280;40208;39.778;2.710;2023-04-06T13:03:49;101805.59;;;17.23;100.00
54308;BME280;40208;39.778;2.710;2023-04-06T13:06:34;101812.41;;;17.29;100.00
54308;BME280;40208;39.778;2.710;2023-04-06T13:09:19;101800.44;;;17.34;100.00
54308;BME280;40208;39.778;2.710;2023-04-06T13:12:03;101803.13;;;17.34;100.00
54308;BME280;40208;39.778;2.710;2023-04-06T13:14:48;101809.47;;;17.33;100.00
54308;BME280;40208;39.778;2.710;2023-04-06T13:17:35;101799.44;;;17.37;100.00
54308;BME280;40208;39.778;2.710;2023-04-06T13:20:20;101796.56;;;17.40;100.00
54308;BME280;40208;39.778;2.710;2023-04-06T13:23:04;101796.50;;;17.42;100.00
54308;BME280;40208;39.778;2.710;2023-04-06T13:26:05;101803.84;;;17.38;100.00
54308;BME280;40208;39.778;2.710;2023-04-06T13:28:50;101795.53;;;17.43;100.00
54308;BME280;40208;39.778;2.710;2023-04-06T13:31:34;101788.91;;;17.48;100.00
54308;BME280;40208;39.778;2.710;2023-04-06T13:34:19;101793.63;;;17.45;100.00
54308;BME280;40208;39.778;2.710;2023-04-06T13:37:04;101789.28;;;17.42;100.00
54308;BME280;40208;39.778;2.710;2023-04-06T13:39:48;101794.56;;;17.44;100.00
54308;BME280;40208;39.778;2.710;2023-04-06T13:42:33;101783.06;;;17.42;100.00
54308;BME280;40208;39.778;2.710;2023-04-06T13:45:19;101787.53;;;17.41;100.00
54308;BME280;40208;39.778;2.710;2023-04-06T13:48:04;101784.78;;;17.43;100.00
54308;BME280;40208;39.778;2.710;2023-04-06T13:50:49;101779.41;;;17.43;100.00
54308;BME280;40208;39.778;2.710;2023-04-06T13:53:34;101781.41;;;17.39;100.00
54308;BME280;40208;39.778;2.710;2023-04-06T13:56:18;101781.13;;;17.44;100.00
54308;BME280;40208;39.778;2.710;2023-04-06T13:59:03;101782.88;;;17.45;100.00
54308;BME280;40208;39.778;2.710;2023-04-06T14:01:48;101787.28;;;17.46;100.00
54308;BME280;40208;39.778;2.710;2023-04-06T14:04:32;101780.28;;;17.43;100.00
54308;BME280;40208;39.778;2.710;2023-04-06T14:07:18;101785.31;;;17.49;100.00
54308;BME280;40208;39.778;2.710;2023-04-06T14:10:02;101784.25;;;17.52;100.00
54308;BME280;40208;39.778;2.710;2023-04-06T14:12:47;101782.50;;;17.51;100.00
54308;BME280;40208;39.778;2.710;2023-04-06T14:15:31;101786.16;;;17.50;100.00
54308;BME280;40208;39.778;2.710;2023-04-06T14:18:16;101780.59;;;17.53;100.00
54308;BME280;40208;39.778;2.710;2023-04-06T14:21:00;101789.44;;;17.55;100.00